sensor_id;sensor_type;location;lat;lon;timestamp;P1;durP1;ratioP1;P2;durP2;ratioP2
32705;SDS011;19094;50.972;3.538;2022-11-15T03:31:17;9.35;;;4.82;;
32705;SDS011;19094;50.972;3.538;2022-11-15T03:34:05;15.10;;;5.05;;
32705;SDS011;19094;50.972;3.538;2022-11-15T03:36:34;12.07;;;4.57;;
32705;SDS011;19094;50.972;3.538;2022-11-15T03:39:02;19.23;;;5.35;;
32705;SDS011;19094;50.972;3.538;2022-11-15T03:44:10;13.40;;;5.18;;
32705;SDS011;19094;50.972;3.538;2022-11-15T03:49:24;12.73;;;5.20;;
32705;SDS011;19094;50.972;3.538;2022-11-15T03:51:56;9.45;;;5.03;;
32705;SDS011;19094;50.972;3.538;2022-11-15T03:54:23;16.73;;;5.18;;
32705;SDS011;19094;50.972;3.538;2022-11-15T03:56:49;20.75;;;5.18;;
32705;SDS011;19094;50.972;3.538;2022-11-15T03:59:14;17.25;;;5.45;;
32705;SDS011;19094;50.972;3.538;2022-11-15T04:01:40;11.93;;;5.50;;
32705;SDS011;19094;50.972;3.538;2022-11-15T04:04:06;13.25;;;5.97;;
32705;SDS011;19094;50.972;3.538;2022-11-15T04:06:31;13.02;;;4.78;;
32705;SDS011;19094;50.972;3.538;2022-11-15T04:08:57;13.85;;;5.60;;
32705;SDS011;19094;50.972;3.538;2022-11-15T04:11:23;17.90;;;6.13;;
32705;SDS011;19094;50.972;3.538;2022-11-15T04:13:48;12.98;;;5.50;;
32705;SDS011;19094;50.972;3.538;2022-11-15T04:16:14;13.40;;;5.32;;
32705;SDS011;19094;50.972;3.538;2022-11-15T04:18:39;15.60;;;5.32;;
32705;SDS011;19094;50.972;3.538;2022-11-15T04:21:05;12.82;;;5.05;;
32705;SDS011;19094;50.972;3.538;2022-11-15T04:23:51;12.25;;;4.95;;
32705;SDS011;19094;50.972;3.538;2022-11-15T04:32:23;15.68;;;4.85;;
32705;SDS011;19094;50.972;3.538;2022-11-15T04:34:48;15.27;;;4.80;;
32705;SDS011;19094;50.972;3.538;2022-11-15T04:37:14;12.65;;;4.70;;
32705;SDS011;19094;50.972;3.538;2022-11-15T04:39:41;12.95;;;4.03;;
32705;SDS011;19094;50.972;3.538;2022-11-15T04:42:08;15.10;;;4.10;;
32705;SDS011;19094;50.972;3.538;2022-11-15T04:44:34;9.63;;;4.43;;
32705;SDS011;19094;50.972;3.538;2022-11-15T04:47:00;15.07;;;4.50;;
32705;SDS011;19094;50.972;3.538;2022-11-15T04:49:26;13.23;;;4.75;;
32705;SDS011;19094;50.972;3.538;2022-11-15T04:51:52;8.73;;;3.70;;
32705;SDS011;19094;50.972;3.538;2022-11-15T04:54:18;12.45;;;4.20;;
32705;SDS011;19094;50.972;3.538;2022-11-15T04:56:44;8.57;;;3.70;;
32705;SDS011;19094;50.972;3.538;2022-11-15T04:59:09;7.43;;;3.85;;
32705;SDS011;19094;50.972;3.538;2022-11-15T05:01:35;15.07;;;4.22;;
32705;SDS011;19094;50.972;3.538;2022-11-15T05:04:01;11.35;;;4.05;;
32705;SDS011;19094;50.972;3.538;2022-11-15T05:06:45;11.25;;;4.15;;
32705;SDS011;19094;50.972;3.538;2022-11-15T05:09:12;9.40;;;4.53;;
32705;SDS011;19094;50.972;3.538;2022-11-15T05:11:38;15.15;;;4.22;;
32705;SDS011;19094;50.972;3.538;2022-11-15T05:14:04;22.63;;;4.20;;
32705;SDS011;19094;50.972;3.538;2022-11-15T05:16:30;15.80;;;4.25;;
32705;SDS011;19094;50.972;3.538;2022-11-15T05:18:56;8.57;;;3.65;;
32705;SDS011;19094;50.972;3.538;2022-11-15T05:21:21;11.32;;;4.22;;
32705;SDS011;19094;50.972;3.538;2022-11-15T05:23:47;10.90;;;4.18;;
32705;SDS011;19094;50.972;3.538;2022-11-15T05:26:13;10.02;;;3.83;;
32705;SDS011;19094;50.972;3.538;2022-11-15T05:28:41;13.18;;;4.15;;
32705;SDS011;19094;50.972;3.538;2022-11-15T05:31:10;19.13;;;5.20;;
32705;SDS011;19094;50.972;3.538;2022-11-15T05:33:38;16.35;;;5.35;;
32705;SDS011;19094;50.972;3.538;2022-11-15T05:38:55;17.73;;;5.30;;
32705;SDS011;19094;50.972;3.538;2022-11-15T05:41:22;12.02;;;4.95;;
32705;SDS011;19094;50.972;3.538;2022-11-15T05:43:54;20.63;;;5.93;;
32705;SDS011;19094;50.972;3.538;2022-11-15T05:46:20;22.45;;;5.82;;
32705;SDS011;19094;50.972;3.538;2022-11-15T05:48:46;19.65;;;6.63;;
32705;SDS011;19094;50.972;3.538;2022-11-15T05:51:14;15.38;;;6.38;;
32705;SDS011;19094;50.972;3.538;2022-11-15T05:53:41;19.30;;;6.88;;
32705;SDS011;19094;50.972;3.538;2022-11-15T05:56:08;17.40;;;7.03;;
32705;SDS011;19094;50.972;3.538;2022-11-15T05:58:34;13.02;;;6.47;;
32705;SDS011;19094;50.972;3.538;2022-11-15T06:01:02;12.98;;;6.30;;
32705;SDS011;19094;50.972;3.538;2022-11-15T06:03:28;11.73;;;5.50;;
32705;SDS011;19094;50.972;3.538;2022-11-15T06:05:53;15.18;;;6.07;;
32705;SDS011;19094;50.972;3.538;2022-11-15T06:08:19;12.05;;;5.35;;
32705;SDS011;19094;50.972;3.538;2022-11-15T06:10:45;9.02;;;4.97;;
32705;SDS011;19094;50.972;3.538;2022-11-15T06:13:10;15.23;;;4.70;;
32705;SDS011;19094;50.972;3.538;2022-11-15T06:15:36;10.32;;;4.85;;
32705;SDS011;19094;50.972;3.538;2022-11-15T06:18:02;9.32;;;4.75;;
32705;SDS011;19094;50.972;3.538;2022-11-15T06:20:28;9.82;;;5.40;;
32705;SDS011;19094;50.972;3.538;2022-11-15T06:23:01;14.45;;;4.97;;
32705;SDS011;19094;50.972;3.538;2022-11-15T06:25:39;8.27;;;4.65;;
32705;SDS011;19094;50.972;3.538;2022-11-15T06:31:26;13.20;;;4.95;;
32705;SDS011;19094;50.972;3.538;2022-11-15T06:33:52;15.57;;;5.00;;
32705;SDS011;19094;50.972;3.538;2022-11-15T06:36:17;10.05;;;4.93;;
32705;SDS011;19094;50.972;3.538;2022-11-15T06:38:44;15.23;;;6.00;;
32705;SDS011;19094;50.972;3.538;2022-11-15T06:41:10;9.15;;;5.05;;
32705;SDS011;19094;50.972;3.538;2022-11-15T06:43:37;9.27;;;4.60;;
32705;SDS011;19094;50.972;3.538;2022-11-15T06:46:04;9.93;;;5.07;;
32705;SDS011;19094;50.972;3.538;2022-11-15T06:48:31;11.60;;;4.97;;
32705;SDS011;19094;50.972;3.538;2022-11-15T06:50:58;8.35;;;5.13;;
32705;SDS011;19094;50.972;3.538;2022-11-15T06:53:25;11.98;;;5.38;;
32705;SDS011;19094;50.972;3.538;2022-11-15T06:55:51;10.10;;;5.70;;
32705;SDS011;19094;50.972;3.538;2022-11-15T06:58:17;9.52;;;5.18;;
32705;SDS011;19094;50.972;3.538;2022-11-15T07:00:43;15.23;;;6.07;;
32705;SDS011;19094;50.972;3.538;2022-11-15T07:03:09;11.45;;;6.05;;
32705;SDS011;19094;50.972;3.538;2022-11-15T07:05:35;11.95;;;5.30;;
32705;SDS011;19094;50.972;3.538;2022-11-15T07:08:01;10.70;;;5.65;;
32705;SDS011;19094;50.972;3.538;2022-11-15T07:10:28;11.68;;;5.10;;
32705;SDS011;19094;50.972;3.538;2022-11-15T07:12:54;13.63;;;5.20;;
32705;SDS011;19094;50.972;3.538;2022-11-15T07:15:21;12.52;;;5.78;;
32705;SDS011;19094;50.972;3.538;2022-11-15T07:17:49;11.48;;;5.45;;
32705;SDS011;19094;50.972;3.538;2022-11-15T07:20:15;11.80;;;4.60;;
32705;SDS011;19094;50.972;3.538;2022-11-15T07:22:41;9.02;;;4.63;;
32705;SDS011;19094;50.972;3.538;2022-11-15T07:25:08;9.63;;;5.00;;
32705;SDS011;19094;50.972;3.538;2022-11-15T07:27:34;11.98;;;4.60;;
32705;SDS011;19094;50.972;3.538;2022-11-15T07:30:00;7.80;;;4.15;;
32705;SDS011;19094;50.972;3.538;2022-11-15T07:32:26;11.57;;;5.45;;
32705;SDS011;19094;50.972;3.538;2022-11-15T07:34:52;16.85;;;4.75;;
32705;SDS011;19094;50.972;3.538;2022-11-15T07:37:17;15.48;;;4.85;;
32705;SDS011;19094;50.972;3.538;2022-11-15T07:39:43;15.80;;;4.70;;
32705;SDS011;19094;50.972;3.538;2022-11-15T07:42:09;12.85;;;4.50;;
32705;SDS011;19094;50.972;3.538;2022-11-15T07:47:19;12.88;;;4.72;;
32705;SDS011;19094;50.972;3.538;2022-11-15T07:49:45;8.18;;;4.40;;
32705;SDS011;19094;50.972;3.538;2022-11-15T07:52:12;6.43;;;3.85;;
32705;SDS011;19094;50.972;3.538;2022-11-15T07:54:38;12.52;;;3.83;;
32705;SDS011;19094;50.972;3.538;2022-11-15T07:57:04;8.07;;;3.75;;
32705;SDS011;19094;50.972;3.538;2022-11-15T07:59:30;15.35;;;5.28;;
32705;SDS011;19094;50.972;3.538;2022-11-15T08:01:56;14.98;;;3.95;;
32705;SDS011;19094;50.972;3.538;2022-11-15T08:04:22;12.93;;;4.57;;
32705;SDS011;19094;50.972;3.538;2022-11-15T08:06:48;11.57;;;4.68;;
32705;SDS011;19094;50.972;3.538;2022-11-15T08:09:14;11.48;;;4.00;;
32705;SDS011;19094;50.972;3.538;2022-11-15T08:11:40;12.27;;;4.13;;
32705;SDS011;19094;50.972;3.538;2022-11-15T08:14:06;14.10;;;4.03;;
32705;SDS011;19094;50.972;3.538;2022-11-15T08:16:31;9.63;;;3.60;;
32705;SDS011;19094;50.972;3.538;2022-11-15T08:18:57;13.85;;;4.07;;
32705;SDS011;19094;50.972;3.538;2022-11-15T08:21:23;13.40;;;3.80;;
32705;SDS011;19094;50.972;3.538;2022-11-15T08:23:49;7.53;;;3.30;;
32705;SDS011;19094;50.972;3.538;2022-11-15T08:26:15;7.60;;;3.28;;
32705;SDS011;19094;50.972;3.538;2022-11-15T08:28:41;10.75;;;3.30;;
32705;SDS011;19094;50.972;3.538;2022-11-15T08:31:12;13.98;;;3.67;;
32705;SDS011;19094;50.972;3.538;2022-11-15T08:33:43;12.80;;;3.28;;
32705;SDS011;19094;50.972;3.538;2022-11-15T08:36:13;8.95;;;3.30;;
32705;SDS011;19094;50.972;3.538;2022-11-15T08:38:41;9.32;;;3.22;;
32705;SDS011;19094;50.972;3.538;2022-11-15T08:41:09;11.98;;;3.20;;
32705;SDS011;19094;50.972;3.538;2022-11-15T08:43:38;8.18;;;3.38;;
32705;SDS011;19094;50.972;3.538;2022-11-15T08:46:04;8.40;;;2.75;;
32705;SDS011;19094;50.972;3.538;2022-11-15T08:48:30;6.43;;;2.70;;
32705;SDS011;19094;50.972;3.538;2022-11-15T08:50:56;10.32;;;3.05;;
32705;SDS011;19094;50.972;3.538;2022-11-15T08:53:22;8.95;;;2.75;;
32705;SDS011;19094;50.972;3.538;2022-11-15T08:55:48;12.90;;;3.38;;
32705;SDS011;19094;50.972;3.538;2022-11-15T08:58:13;12.25;;;3.28;;
32705;SDS011;19094;50.972;3.538;2022-11-15T09:00:39;10.57;;;3.20;;
32705;SDS011;19094;50.972;3.538;2022-11-15T09:03:05;14.07;;;2.67;;
32705;SDS011;19094;50.972;3.538;2022-11-15T09:05:31;9.98;;;2.90;;
32705;SDS011;19094;50.972;3.538;2022-11-15T09:08:00;9.82;;;2.50;;
32705;SDS011;19094;50.972;3.538;2022-11-15T09:10:26;8.93;;;2.45;;
32705;SDS011;19094;50.972;3.538;2022-11-15T09:12:51;13.48;;;2.60;;
32705;SDS011;19094;50.972;3.538;2022-11-15T09:15:17;14.27;;;2.40;;
32705;SDS011;19094;50.972;3.538;2022-11-15T09:17:44;6.82;;;2.40;;
32705;SDS011;19094;50.972;3.538;2022-11-15T09:20:10;13.18;;;2.28;;
32705;SDS011;19094;50.972;3.538;2022-11-15T09:22:36;7.15;;;2.63;;
32705;SDS011;19094;50.972;3.538;2022-11-15T09:25:03;11.98;;;2.33;;
32705;SDS011;19094;50.972;3.538;2022-11-15T09:27:30;9.30;;;2.15;;
32705;SDS011;19094;50.972;3.538;2022-11-15T09:29:56;7.65;;;1.98;;
32705;SDS011;19094;50.972;3.538;2022-11-15T09:32:22;8.60;;;2.30;;
32705;SDS011;19094;50.972;3.538;2022-11-15T09:34:48;11.40;;;2.50;;
32705;SDS011;19094;50.972;3.538;2022-11-15T09:37:14;6.05;;;1.75;;
32705;SDS011;19094;50.972;3.538;2022-11-15T09:39:40;13.32;;;2.50;;
32705;SDS011;19094;50.972;3.538;2022-11-15T09:45:20;9.43;;;1.92;;
32705;SDS011;19094;50.972;3.538;2022-11-15T09:50:49;8.17;;;2.23;;
32705;SDS011;19094;50.972;3.538;2022-11-15T09:53:25;26.07;;;2.77;;
32705;SDS011;19094;50.972;3.538;2022-11-15T09:56:17;12.55;;;2.10;;
32705;SDS011;19094;50.972;3.538;2022-11-15T10:04:33;11.63;;;2.55;;
32705;SDS011;19094;50.972;3.538;2022-11-15T10:07:18;10.63;;;2.20;;
32705;SDS011;19094;50.972;3.538;2022-11-15T10:09:51;9.60;;;2.95;;
32705;SDS011;19094;50.972;3.538;2022-11-15T10:12:18;12.18;;;3.13;;
32705;SDS011;19094;50.972;3.538;2022-11-15T10:14:45;10.30;;;2.95;;
32705;SDS011;19094;50.972;3.538;2022-11-15T10:20:30;11.10;;;2.25;;
32705;SDS011;19094;50.972;3.538;2022-11-15T10:23:01;11.68;;;2.55;;
32705;SDS011;19094;50.972;3.538;2022-11-15T10:25:32;12.05;;;2.83;;
32705;SDS011;19094;50.972;3.538;2022-11-15T10:27:59;15.00;;;2.45;;
32705;SDS011;19094;50.972;3.538;2022-11-15T10:30:51;14.50;;;1.90;;
32705;SDS011;19094;50.972;3.538;2022-11-15T10:33:21;9.88;;;1.95;;
32705;SDS011;19094;50.972;3.538;2022-11-15T10:41:37;17.13;;;2.67;;
32705;SDS011;19094;50.972;3.538;2022-11-15T10:46:41;14.32;;;1.70;;
32705;SDS011;19094;50.972;3.538;2022-11-15T10:49:22;12.45;;;2.30;;
32705;SDS011;19094;50.972;3.538;2022-11-15T10:52:14;10.85;;;1.95;;
32705;SDS011;19094;50.972;3.538;2022-11-15T10:54:48;11.82;;;2.17;;
32705;SDS011;19094;50.972;3.538;2022-11-15T10:57:22;8.30;;;2.30;;
32705;SDS011;19094;50.972;3.538;2022-11-15T11:00:00;8.05;;;1.60;;
32705;SDS011;19094;50.972;3.538;2022-11-15T11:02:36;12.80;;;2.42;;
32705;SDS011;19094;50.972;3.538;2022-11-15T11:05:04;8.82;;;1.50;;
32705;SDS011;19094;50.972;3.538;2022-11-15T11:07:54;6.50;;;1.95;;
32705;SDS011;19094;50.972;3.538;2022-11-15T11:10:29;7.80;;;2.75;;
32705;SDS011;19094;50.972;3.538;2022-11-15T11:12:55;7.53;;;2.25;;
32705;SDS011;19094;50.972;3.538;2022-11-15T11:15:22;8.15;;;2.15;;
32705;SDS011;19094;50.972;3.538;2022-11-15T11:18:04;7.57;;;1.92;;
32705;SDS011;19094;50.972;3.538;2022-11-15T11:20:43;10.68;;;2.95;;
32705;SDS011;19094;50.972;3.538;2022-11-15T11:23:45;10.43;;;2.00;;
32705;SDS011;19094;50.972;3.538;2022-11-15T11:29:13;6.63;;;2.08;;
32705;SDS011;19094;50.972;3.538;2022-11-15T11:40:41;8.43;;;1.75;;
32705;SDS011;19094;50.972;3.538;2022-11-15T11:45:53;7.45;;;1.73;;
32705;SDS011;19094;50.972;3.538;2022-11-15T11:48:44;5.20;;;1.70;;
32705;SDS011;19094;50.972;3.538;2022-11-15T11:53:47;3.92;;;1.50;;
32705;SDS011;19094;50.972;3.538;2022-11-15T11:56:25;9.95;;;1.70;;
32705;SDS011;19094;50.972;3.538;2022-11-15T11:58:52;13.57;;;2.05;;
32705;SDS011;19094;50.972;3.538;2022-11-15T12:01:28;7.55;;;1.85;;
32705;SDS011;19094;50.972;3.538;2022-11-15T12:06:50;10.82;;;2.30;;
32705;SDS011;19094;50.972;3.538;2022-11-15T12:09:23;6.07;;;2.33;;
32705;SDS011;19094;50.972;3.538;2022-11-15T12:14:45;8.90;;;2.03;;
32705;SDS011;19094;50.972;3.538;2022-11-15T12:17:12;8.40;;;1.75;;
32705;SDS011;19094;50.972;3.538;2022-11-15T12:19:39;6.30;;;1.67;;
32705;SDS011;19094;50.972;3.538;2022-11-15T12:24:48;7.07;;;1.42;;
32705;SDS011;19094;50.972;3.538;2022-11-15T12:27:47;12.07;;;1.40;;
32705;SDS011;19094;50.972;3.538;2022-11-15T12:30:18;6.55;;;2.10;;
32705;SDS011;19094;50.972;3.538;2022-11-15T12:32:59;7.50;;;1.80;;
32705;SDS011;19094;50.972;3.538;2022-11-15T12:35:34;7.35;;;1.52;;
32705;SDS011;19094;50.972;3.538;2022-11-15T12:38:02;6.38;;;1.52;;
32705;SDS011;19094;50.972;3.538;2022-11-15T12:40:30;7.63;;;1.77;;
32705;SDS011;19094;50.972;3.538;2022-11-15T12:45:42;6.43;;;1.60;;
32705;SDS011;19094;50.972;3.538;2022-11-15T12:58:46;8.20;;;1.85;;
32705;SDS011;19094;50.972;3.538;2022-11-15T13:07:03;4.38;;;2.13;;
32705;SDS011;19094;50.972;3.538;2022-11-15T13:14:52;10.15;;;2.30;;
32705;SDS011;19094;50.972;3.538;2022-11-15T13:19:45;7.68;;;2.40;;
32705;SDS011;19094;50.972;3.538;2022-11-15T13:22:11;9.95;;;1.77;;
32705;SDS011;19094;50.972;3.538;2022-11-15T13:27:22;5.50;;;1.88;;
32705;SDS011;19094;50.972;3.538;2022-11-15T13:29:48;3.78;;;1.52;;
32705;SDS011;19094;50.972;3.538;2022-11-15T13:32:14;9.55;;;2.03;;
32705;SDS011;19094;50.972;3.538;2022-11-15T13:34:44;3.78;;;1.65;;
32705;SDS011;19094;50.972;3.538;2022-11-15T13:37:27;5.60;;;1.50;;
32705;SDS011;19094;50.972;3.538;2022-11-15T13:39:54;2.38;;;1.40;;
32705;SDS011;19094;50.972;3.538;2022-11-15T13:42:40;8.85;;;2.25;;
32705;SDS011;19094;50.972;3.538;2022-11-15T13:45:11;6.15;;;1.75;;
32705;SDS011;19094;50.972;3.538;2022-11-15T13:47:39;10.82;;;3.05;;
32705;SDS011;19094;50.972;3.538;2022-11-15T13:50:05;4.32;;;1.98;;
32705;SDS011;19094;50.972;3.538;2022-11-15T13:52:35;8.90;;;3.13;;
32705;SDS011;19094;50.972;3.538;2022-11-15T13:57:40;6.78;;;1.92;;
32705;SDS011;19094;50.972;3.538;2022-11-15T14:02:47;7.50;;;1.88;;
32705;SDS011;19094;50.972;3.538;2022-11-15T14:05:14;7.13;;;2.00;;
32705;SDS011;19094;50.972;3.538;2022-11-15T14:10:29;3.17;;;1.60;;
32705;SDS011;19094;50.972;3.538;2022-11-15T14:13:01;6.25;;;2.10;;
32705;SDS011;19094;50.972;3.538;2022-11-15T14:15:32;7.55;;;1.90;;
32705;SDS011;19094;50.972;3.538;2022-11-15T14:17:59;5.93;;;2.17;;
32705;SDS011;19094;50.972;3.538;2022-11-15T14:22:56;7.03;;;2.30;;
32705;SDS011;19094;50.972;3.538;2022-11-15T14:25:25;5.32;;;1.70;;
32705;SDS011;19094;50.972;3.538;2022-11-15T14:30:41;5.85;;;2.08;;
32705;SDS011;19094;50.972;3.538;2022-11-15T14:35:53;3.55;;;1.95;;
32705;SDS011;19094;50.972;3.538;2022-11-15T14:38:21;4.22;;;1.63;;
32705;SDS011;19094;50.972;3.538;2022-11-15T14:40:46;6.10;;;2.35;;
32705;SDS011;19094;50.972;3.538;2022-11-15T14:43:13;4.30;;;2.28;;
32705;SDS011;19094;50.972;3.538;2022-11-15T14:45:39;5.22;;;2.28;;
32705;SDS011;19094;50.972;3.538;2022-11-15T14:48:06;14.82;;;3.17;;
32705;SDS011;19094;50.972;3.538;2022-11-15T14:50:32;6.20;;;2.22;;
32705;SDS011;19094;50.972;3.538;2022-11-15T14:52:59;4.75;;;2.00;;
32705;SDS011;19094;50.972;3.538;2022-11-15T14:55:26;8.05;;;2.70;;
32705;SDS011;19094;50.972;3.538;2022-11-15T14:57:56;9.43;;;2.63;;
32705;SDS011;19094;50.972;3.538;2022-11-15T15:00:23;6.28;;;2.50;;
32705;SDS011;19094;50.972;3.538;2022-11-15T15:02:49;8.60;;;3.33;;
32705;SDS011;19094;50.972;3.538;2022-11-15T15:05:19;15.15;;;3.40;;
32705;SDS011;19094;50.972;3.538;2022-11-15T15:07:46;7.32;;;2.80;;
32705;SDS011;19094;50.972;3.538;2022-11-15T15:10:13;12.15;;;3.28;;
32705;SDS011;19094;50.972;3.538;2022-11-15T15:12:40;7.30;;;3.03;;
32705;SDS011;19094;50.972;3.538;2022-11-15T15:15:08;7.05;;;3.22;;
32705;SDS011;19094;50.972;3.538;2022-11-15T15:17:41;5.85;;;2.80;;
32705;SDS011;19094;50.972;3.538;2022-11-15T15:20:07;8.20;;;3.28;;
32705;SDS011;19094;50.972;3.538;2022-11-15T15:22:34;7.38;;;3.35;;
32705;SDS011;19094;50.972;3.538;2022-11-15T15:24:59;13.13;;;3.13;;
32705;SDS011;19094;50.972;3.538;2022-11-15T15:27:29;8.35;;;3.78;;
32705;SDS011;19094;50.972;3.538;2022-11-15T15:29:54;7.20;;;3.80;;
32705;SDS011;19094;50.972;3.538;2022-11-15T15:32:20;4.70;;;3.00;;
32705;SDS011;19094;50.972;3.538;2022-11-15T15:34:46;8.52;;;4.00;;
32705;SDS011;19094;50.972;3.538;2022-11-15T15:37:22;8.00;;;4.57;;
32705;SDS011;19094;50.972;3.538;2022-11-15T15:39:51;6.53;;;3.78;;
32705;SDS011;19094;50.972;3.538;2022-11-15T15:42:20;6.20;;;3.47;;
32705;SDS011;19094;50.972;3.538;2022-11-15T15:44:47;7.28;;;3.33;;
32705;SDS011;19094;50.972;3.538;2022-11-15T15:47:16;8.68;;;4.07;;
32705;SDS011;19094;50.972;3.538;2022-11-15T15:49:46;6.97;;;3.25;;
32705;SDS011;19094;50.972;3.538;2022-11-15T15:52:13;3.45;;;2.70;;
32705;SDS011;19094;50.972;3.538;2022-11-15T15:54:39;7.00;;;3.03;;
32705;SDS011;19094;50.972;3.538;2022-11-15T15:57:06;5.05;;;2.47;;
32705;SDS011;19094;50.972;3.538;2022-11-15T15:59:33;6.47;;;2.83;;
32705;SDS011;19094;50.972;3.538;2022-11-15T16:01:59;5.80;;;3.15;;
32705;SDS011;19094;50.972;3.538;2022-11-15T16:04:25;6.82;;;4.22;;
32705;SDS011;19094;50.972;3.538;2022-11-15T16:06:51;7.70;;;3.10;;
32705;SDS011;19094;50.972;3.538;2022-11-15T16:09:19;4.35;;;2.63;;
32705;SDS011;19094;50.972;3.538;2022-11-15T16:12:05;7.40;;;3.25;;
32705;SDS011;19094;50.972;3.538;2022-11-15T16:14:31;5.00;;;2.92;;
32705;SDS011;19094;50.972;3.538;2022-11-15T16:16:57;4.80;;;3.40;;
32705;SDS011;19094;50.972;3.538;2022-11-15T16:19:24;3.63;;;2.60;;
32705;SDS011;19094;50.972;3.538;2022-11-15T16:21:51;6.25;;;2.90;;
32705;SDS011;19094;50.972;3.538;2022-11-15T16:24:17;4.13;;;2.90;;
32705;SDS011;19094;50.972;3.538;2022-11-15T16:26:43;4.55;;;2.60;;
32705;SDS011;19094;50.972;3.538;2022-11-15T16:29:10;10.23;;;4.30;;
32705;SDS011;19094;50.972;3.538;2022-11-15T16:31:36;5.57;;;3.53;;
32705;SDS011;19094;50.972;3.538;2022-11-15T16:34:02;8.07;;;4.00;;
32705;SDS011;19094;50.972;3.538;2022-11-15T16:36:30;7.30;;;3.67;;
32705;SDS011;19094;50.972;3.538;2022-11-15T16:38:57;5.50;;;3.42;;
32705;SDS011;19094;50.972;3.538;2022-11-15T16:41:23;7.43;;;3.83;;
32705;SDS011;19094;50.972;3.538;2022-11-15T16:43:50;6.10;;;3.35;;
32705;SDS011;19094;50.972;3.538;2022-11-15T16:46:17;4.68;;;3.15;;
32705;SDS011;19094;50.972;3.538;2022-11-15T16:48:47;4.20;;;2.97;;
32705;SDS011;19094;50.972;3.538;2022-11-15T16:51:13;5.18;;;2.97;;
32705;SDS011;19094;50.972;3.538;2022-11-15T16:53:39;4.32;;;3.10;;
32705;SDS011;19094;50.972;3.538;2022-11-15T16:56:13;5.13;;;3.17;;
32705;SDS011;19094;50.972;3.538;2022-11-15T16:58:51;6.43;;;2.70;;
32705;SDS011;19094;50.972;3.538;2022-11-15T17:01:32;5.28;;;3.38;;
32705;SDS011;19094;50.972;3.538;2022-11-15T17:03:59;9.57;;;3.50;;
32705;SDS011;19094;50.972;3.538;2022-11-15T17:06:39;8.02;;;3.28;;
32705;SDS011;19094;50.972;3.538;2022-11-15T17:09:07;4.63;;;2.70;;
32705;SDS011;19094;50.972;3.538;2022-11-15T17:14:06;10.25;;;5.40;;
32705;SDS011;19094;50.972;3.538;2022-11-15T17:16:32;5.85;;;3.20;;
32705;SDS011;19094;50.972;3.538;2022-11-15T17:18:59;8.80;;;4.15;;
32705;SDS011;19094;50.972;3.538;2022-11-15T17:21:25;4.35;;;2.63;;
32705;SDS011;19094;50.972;3.538;2022-11-15T17:23:52;7.32;;;3.42;;
32705;SDS011;19094;50.972;3.538;2022-11-15T17:26:18;6.63;;;2.95;;
32705;SDS011;19094;50.972;3.538;2022-11-15T17:28:44;7.03;;;3.30;;
32705;SDS011;19094;50.972;3.538;2022-11-15T17:31:11;7.55;;;3.67;;
32705;SDS011;19094;50.972;3.538;2022-11-15T17:33:38;6.65;;;3.20;;
32705;SDS011;19094;50.972;3.538;2022-11-15T17:36:05;9.63;;;3.90;;
32705;SDS011;19094;50.972;3.538;2022-11-15T17:38:33;7.75;;;4.30;;
32705;SDS011;19094;50.972;3.538;2022-11-15T17:41:02;9.57;;;4.40;;
32705;SDS011;19094;50.972;3.538;2022-11-15T17:43:30;5.57;;;3.70;;
32705;SDS011;19094;50.972;3.538;2022-11-15T17:45:57;6.50;;;4.10;;
32705;SDS011;19094;50.972;3.538;2022-11-15T17:48:23;6.07;;;3.47;;
32705;SDS011;19094;50.972;3.538;2022-11-15T17:51:03;9.30;;;3.95;;
32705;SDS011;19094;50.972;3.538;2022-11-15T17:53:31;5.78;;;3.58;;
32705;SDS011;19094;50.972;3.538;2022-11-15T17:56:20;10.00;;;4.35;;
32705;SDS011;19094;50.972;3.538;2022-11-15T17:58:49;5.47;;;3.50;;
32705;SDS011;19094;50.972;3.538;2022-11-15T18:03:42;7.53;;;3.80;;
32705;SDS011;19094;50.972;3.538;2022-11-15T18:06:08;6.85;;;3.75;;
32705;SDS011;19094;50.972;3.538;2022-11-15T18:08:36;7.97;;;3.60;;
32705;SDS011;19094;50.972;3.538;2022-11-15T18:11:06;5.90;;;4.05;;
32705;SDS011;19094;50.972;3.538;2022-11-15T18:13:35;8.93;;;3.88;;
32705;SDS011;19094;50.972;3.538;2022-11-15T18:16:03;6.13;;;3.78;;
32705;SDS011;19094;50.972;3.538;2022-11-15T18:18:30;6.10;;;3.95;;
32705;SDS011;19094;50.972;3.538;2022-11-15T18:21:01;9.10;;;3.75;;
32705;SDS011;19094;50.972;3.538;2022-11-15T18:23:31;11.43;;;4.20;;
32705;SDS011;19094;50.972;3.538;2022-11-15T18:25:58;6.85;;;3.83;;
32705;SDS011;19094;50.972;3.538;2022-11-15T18:28:28;8.10;;;3.85;;
32705;SDS011;19094;50.972;3.538;2022-11-15T18:30:58;6.40;;;4.13;;
32705;SDS011;19094;50.972;3.538;2022-11-15T18:33:25;5.88;;;4.35;;
32705;SDS011;19094;50.972;3.538;2022-11-15T18:35:59;9.52;;;4.40;;
32705;SDS011;19094;50.972;3.538;2022-11-15T18:38:25;8.10;;;4.90;;
32705;SDS011;19094;50.972;3.538;2022-11-15T18:40:54;7.57;;;4.30;;
32705;SDS011;19094;50.972;3.538;2022-11-15T18:43:42;8.15;;;5.05;;
32705;SDS011;19094;50.972;3.538;2022-11-15T18:46:12;5.70;;;4.15;;
32705;SDS011;19094;50.972;3.538;2022-11-15T18:48:40;9.63;;;4.57;;
32705;SDS011;19094;50.972;3.538;2022-11-15T18:51:07;8.50;;;4.57;;
32705;SDS011;19094;50.972;3.538;2022-11-15T18:53:36;9.50;;;4.30;;
32705;SDS011;19094;50.972;3.538;2022-11-15T18:56:04;9.43;;;4.50;;
32705;SDS011;19094;50.972;3.538;2022-11-15T18:58:32;8.75;;;4.30;;
32705;SDS011;19094;50.972;3.538;2022-11-15T19:01:22;6.53;;;4.15;;
32705;SDS011;19094;50.972;3.538;2022-11-15T19:03:47;7.72;;;5.53;;
32705;SDS011;19094;50.972;3.538;2022-11-15T19:08:45;5.18;;;3.58;;
32705;SDS011;19094;50.972;3.538;2022-11-15T19:11:13;5.57;;;3.80;;
32705;SDS011;19094;50.972;3.538;2022-11-15T19:13:43;8.57;;;3.92;;
32705;SDS011;19094;50.972;3.538;2022-11-15T19:16:10;13.32;;;4.82;;
32705;SDS011;19094;50.972;3.538;2022-11-15T19:18:37;7.22;;;3.95;;
32705;SDS011;19094;50.972;3.538;2022-11-15T19:21:04;9.45;;;3.92;;
32705;SDS011;19094;50.972;3.538;2022-11-15T19:23:38;8.43;;;4.18;;
32705;SDS011;19094;50.972;3.538;2022-11-15T19:26:05;8.57;;;3.92;;
32705;SDS011;19094;50.972;3.538;2022-11-15T19:28:34;6.78;;;4.35;;
32705;SDS011;19094;50.972;3.538;2022-11-15T19:33:33;7.05;;;3.65;;
32705;SDS011;19094;50.972;3.538;2022-11-15T19:36:03;12.90;;;4.72;;
32705;SDS011;19094;50.972;3.538;2022-11-15T19:38:30;7.25;;;4.20;;
32705;SDS011;19094;50.972;3.538;2022-11-15T19:40:58;6.72;;;4.22;;
32705;SDS011;19094;50.972;3.538;2022-11-15T19:43:24;6.75;;;4.07;;
32705;SDS011;19094;50.972;3.538;2022-11-15T19:45:54;7.47;;;4.80;;
32705;SDS011;19094;50.972;3.538;2022-11-15T19:48:21;10.77;;;4.22;;
32705;SDS011;19094;50.972;3.538;2022-11-15T19:50:47;7.25;;;3.53;;
32705;SDS011;19094;50.972;3.538;2022-11-15T19:53:13;10.10;;;4.25;;
32705;SDS011;19094;50.972;3.538;2022-11-15T19:55:39;8.20;;;4.43;;
32705;SDS011;19094;50.972;3.538;2022-11-15T19:58:05;6.70;;;3.67;;
32705;SDS011;19094;50.972;3.538;2022-11-15T20:00:31;7.03;;;3.72;;
32705;SDS011;19094;50.972;3.538;2022-11-15T20:02:56;10.73;;;4.82;;
32705;SDS011;19094;50.972;3.538;2022-11-15T20:05:22;10.80;;;4.68;;
32705;SDS011;19094;50.972;3.538;2022-11-15T20:07:48;6.93;;;4.70;;
32705;SDS011;19094;50.972;3.538;2022-11-15T20:10:14;9.75;;;4.88;;
32705;SDS011;19094;50.972;3.538;2022-11-15T20:12:40;8.57;;;5.55;;
32705;SDS011;19094;50.972;3.538;2022-11-15T20:15:06;10.85;;;5.40;;
32705;SDS011;19094;50.972;3.538;2022-11-15T20:17:32;6.55;;;4.45;;
32705;SDS011;19094;50.972;3.538;2022-11-15T20:19:58;6.47;;;3.97;;
32705;SDS011;19094;50.972;3.538;2022-11-15T20:22:25;6.72;;;4.05;;
32705;SDS011;19094;50.972;3.538;2022-11-15T20:24:51;8.68;;;4.20;;
32705;SDS011;19094;50.972;3.538;2022-11-15T20:27:16;9.30;;;4.40;;